Time;durP1;ratioP1;P1;durP2;ratioP2;P2;SDS_P1;SDS_P2;PMS_P1;PMS_P2;Temp;Humidity;BMP_temperature;BMP_pressure;BME280_temperature;BME280_humidity;BME280_pressure;Samples;Min_cycle;Max_cycle;Signal;HPM_P1;HPM_P2
2022/02/26 00:00:04;;;;;;;11.22;4.87;;;;;;;3.90;67.06;101452.26;1665549;85;20901;-74
2022/02/26 00:02:31;;;;;;;8.40;4.85;;;;;;;3.91;67.15;101464.22;1665295;84;20891;-74
2022/02/26 00:04:57;;;;;;;11.50;4.62;;;;;;;3.89;67.01;101471.41;1651668;85;21423;-75
2022/02/26 00:07:23;;;;;;;10.40;5.07;;;;;;;3.85;67.07;101469.19;1663698;85;20862;-75
2022/02/26 00:09:49;;;;;;;9.08;4.92;;;;;;;3.87;67.25;101468.81;1666834;85;21755;-75
2022/02/26 00:12:15;;;;;;;6.92;4.42;;;;;;;3.89;67.32;101477.39;1665211;85;20901;-75
2022/02/26 00:14:41;;;;;;;5.70;4.77;;;;;;;3.91;67.35;101483.41;1666093;85;20891;-75
2022/02/26 00:17:07;;;;;;;9.53;4.53;;;;;;;3.92;67.33;101485.14;1670374;85;21655;-75
2022/02/26 00:19:34;;;;;;;11.85;5.25;;;;;;;3.93;67.41;101484.73;1665373;85;21355;-74
2022/02/26 00:22:00;;;;;;;13.40;4.90;;;;;;;3.91;67.43;101488.95;1665077;85;20905;-74
2022/02/26 00:24:27;;;;;;;6.67;4.50;;;;;;;3.90;67.49;101489.36;1656654;85;25026;-74
2022/02/26 00:26:53;;;;;;;10.13;5.28;;;;;;;3.88;67.50;101487.59;1662344;85;25521;-75
2022/02/26 00:29:19;;;;;;;12.13;4.92;;;;;;;3.87;67.55;101493.53;1664560;85;20937;-75
2022/02/26 00:31:45;;;;;;;10.30;5.30;;;;;;;3.85;67.55;101492.62;1656085;85;20918;-74
2022/02/26 00:34:12;;;;;;;9.80;5.35;;;;;;;3.81;67.59;101499.35;1665189;85;20985;-74
2022/02/26 00:36:38;;;;;;;6.08;4.28;;;;;;;3.80;67.69;101505.71;1667253;85;20877;-74
2022/02/26 00:39:05;;;;;;;5.70;4.62;;;;;;;3.79;67.80;101511.23;1674440;85;20899;-74
2022/02/26 00:41:31;;;;;;;7.72;4.80;;;;;;;3.78;67.78;101504.80;1660108;84;26360;-74
2022/02/26 00:43:57;;;;;;;7.55;4.80;;;;;;;3.78;67.81;101501.83;1667963;84;20929;-74
2022/02/26 00:46:23;;;;;;;9.63;5.28;;;;;;;3.77;67.84;101509.05;1665390;85;20946;-75
2022/02/26 00:51:33;;;;;;;7.72;4.22;;;;;;;3.71;67.97;101519.13;1660196;85;21481;-75
2022/02/26 00:54:00;;;;;;;5.42;4.50;;;;;;;3.71;68.01;101521.69;1664998;85;20898;-75
2022/02/26 00:56:26;;;;;;;7.90;4.78;;;;;;;3.71;68.07;101531.91;1665336;85;20894;-75
2022/02/26 00:58:53;;;;;;;8.08;4.85;;;;;;;3.71;68.12;101534.47;1672430;85;20970;-75
2022/02/26 01:01:20;;;;;;;9.30;5.25;;;;;;;3.73;68.13;101538.35;1666211;85;20862;-75
2022/02/26 01:03:46;;;;;;;10.25;5.35;;;;;;;3.74;68.15;101542.23;1664998;85;20917;-75
2022/02/26 01:06:12;;;;;;;10.78;5.55;;;;;;;3.73;68.29;101549.45;1663189;85;20935;-75
2022/02/26 01:08:38;;;;;;;9.85;5.72;;;;;;;3.74;68.34;101551.59;1665129;85;20898;-75
2022/02/26 01:11:04;;;;;;;10.87;5.93;;;;;;;3.75;68.39;101558.03;1665300;85;21685;-75
2022/02/26 01:13:30;;;;;;;8.70;4.87;;;;;;;3.77;68.47;101552.95;1672454;85;20879;-75
2022/02/26 01:15:56;;;;;;;6.78;4.53;;;;;;;3.79;68.57;101557.28;1666012;85;20856;-75
2022/02/26 01:18:22;;;;;;;8.30;5.00;;;;;;;3.81;68.53;101562.03;1653617;85;20910;-75
2022/02/26 01:20:48;;;;;;;11.23;4.63;;;;;;;3.78;68.34;101568.34;1645698;86;20964;-75
2022/02/26 01:23:14;;;;;;;6.40;3.80;;;;;;;3.77;68.54;101570.86;1665566;85;21004;-75
2022/02/26 01:25:40;;;;;;;7.45;5.00;;;;;;;3.76;68.75;101576.39;1626649;85;20901;-75
2022/02/26 01:28:06;;;;;;;8.00;4.70;;;;;;;3.79;68.81;101576.47;1669075;85;20929;-75
2022/02/26 01:30:32;;;;;;;8.50;5.40;;;;;;;3.82;68.86;101576.97;1669239;85;20889;-75
2022/02/26 01:32:59;;;;;;;11.18;4.58;;;;;;;3.82;68.88;101582.95;1651368;85;26363;-75
2022/02/26 01:35:24;;;;;;;8.13;3.87;;;;;;;3.83;68.86;101587.66;1668770;85;20883;-74
2022/02/26 01:37:50;;;;;;;16.20;14.90;;;;;;;3.84;69.01;101597.92;1669350;85;20869;-74
2022/02/26 01:40:17;;;;;;;11.18;8.38;;;;;;;3.83;68.84;101597.47;1641377;85;20898;-74
2022/02/26 01:42:43;;;;;;;8.85;6.92;;;;;;;3.83;69.01;101597.47;1653431;85;20901;-74
2022/02/26 01:45:14;;;;;;;9.48;7.78;;;;;;;3.83;69.05;101597.47;1630751;85;20968;-74
2022/02/26 01:47:41;;;;;;;29.20;26.23;;;;;;;3.83;69.06;101600.03;1636736;85;20953;-74
2022/02/26 01:50:09;;;;;;;9.48;6.40;;;;;;;3.84;69.12;101607.30;1648768;85;20893;-74
2022/02/26 01:52:35;;;;;;;7.58;5.65;;;;;;;3.87;69.19;101602.27;1651548;85;20873;-74
2022/02/26 01:55:02;;;;;;;10.58;6.33;;;;;;;3.85;69.19;101609.03;1659409;86;20862;-75
2022/02/26 01:57:28;;;;;;;12.58;6.83;;;;;;;3.84;69.21;101619.67;1644319;85;21132;-74
2022/02/26 01:59:54;;;;;;;9.35;6.12;;;;;;;3.83;69.31;101614.52;1658109;85;21060;-74
2022/02/26 02:02:21;;;;;;;28.00;25.62;;;;;;;3.82;69.33;101614.06;1637010;86;21076;-74
2022/02/26 02:04:47;;;;;;;9.63;7.95;;;;;;;3.82;69.44;101612.78;1653828;85;28257;-74
2022/02/26 02:07:13;;;;;;;8.55;6.80;;;;;;;3.80;69.42;101614.02;1660926;85;21004;-74
2022/02/26 02:09:43;;;;;;;8.13;5.78;;;;;;;3.80;69.50;101616.58;1666952;85;20968;-75
2022/02/26 02:12:10;;;;;;;7.53;5.60;;;;;;;3.81;69.48;101613.19;1643588;85;20961;-75
2022/02/26 02:14:36;;;;;;;14.47;5.58;;;;;;;3.81;69.51;101615.75;1642881;85;20961;-75
2022/02/26 02:17:04;;;;;;;7.83;5.10;;;;;;;3.81;69.56;101613.61;1631361;85;20877;-75
2022/02/26 02:19:30;;;;;;;7.95;5.28;;;;;;;3.81;69.57;101618.30;1634453;85;21140;-75
2022/02/26 02:21:56;;;;;;;7.95;5.67;;;;;;;3.80;69.62;101619.13;1632803;85;20960;-75
2022/02/26 02:24:22;;;;;;;11.70;10.10;;;;;;;3.81;69.67;101620.00;1665427;85;20870;-75
2022/02/26 02:26:49;;;;;;;6.33;5.22;;;;;;;3.82;69.69;101628.12;1657722;85;20913;-75
2022/02/26 02:29:15;;;;;;;7.03;5.35;;;;;;;3.83;69.72;101629.86;1640900;85;20926;-74
2022/02/26 02:31:41;;;;;;;7.90;5.50;;;;;;;3.82;69.71;101632.83;1628639;85;20933;-74
2022/02/26 02:34:07;;;;;;;10.80;5.47;;;;;;;3.83;69.81;101629.86;1645884;85;20921;-74
2022/02/26 02:36:45;;;;;;;6.53;4.97;;;;;;;3.81;69.84;101634.94;1656515;85;21670;-74
2022/02/26 02:39:12;;;;;;;8.75;5.90;;;;;;;3.82;69.90;101640.51;1642821;85;20930;-74
2022/02/26 02:41:39;;;;;;;8.48;5.35;;;;;;;3.83;69.92;101638.81;1669125;85;20898;-74
2022/02/26 02:44:06;;;;;;;68.60;51.00;;;;;;;3.83;69.93;101643.52;1669038;85;20865;-74
2022/02/26 02:46:33;;;;;;;6.45;5.53;;;;;;;3.81;69.96;101638.77;1646102;85;20921;-74
2022/02/26 02:48:59;;;;;;;6.65;5.78;;;;;;;3.81;69.98;101643.02;1663500;85;20938;-74
2022/02/26 02:51:26;;;;;;;6.62;5.87;;;;;;;3.79;70.03;101642.98;1666717;85;20858;-74
2022/02/26 02:53:52;;;;;;;6.08;5.50;;;;;;;3.77;70.06;101642.48;1620495;85;20912;-74
2022/02/26 02:56:18;;;;;;;8.27;5.23;;;;;;;3.77;70.12;101641.20;1669398;85;21611;-74
2022/02/26 02:58:44;;;;;;;14.78;13.55;;;;;;;3.77;70.14;101639.52;1666046;85;20937;-74
2022/02/26 03:01:10;;;;;;;12.80;5.23;;;;;;;3.76;70.16;101642.03;1635264;85;20969;-74
2022/02/26 03:03:35;;;;;;;6.77;5.60;;;;;;;3.75;70.19;101652.67;1669270;85;21580;-74
2022/02/26 03:06:02;;;;;;;7.53;5.10;;;;;;;3.74;70.20;101653.91;1669188;85;20921;-74
2022/02/26 03:08:29;;;;;;;6.87;5.30;;;;;;;3.72;70.23;101660.25;1652277;85;21266;-74
2022/02/26 03:10:57;;;;;;;7.45;5.45;;;;;;;3.73;70.30;101670.08;1646378;85;20954;-75
2022/02/26 03:13:27;;;;;;;6.03;5.42;;;;;;;3.72;70.37;101669.20;1642148;85;20870;-75
2022/02/26 03:15:55;;;;;;;7.87;6.22;;;;;;;3.73;70.39;101677.34;1642520;85;22338;-74
2022/02/26 03:18:24;;;;;;;9.45;5.80;;;;;;;3.74;70.42;101682.04;1651647;85;20866;-74
2022/02/26 03:20:51;;;;;;;7.40;6.33;;;;;;;3.75;70.48;101686.34;1669062;85;20945;-74
2022/02/26 03:23:17;;;;;;;7.85;6.65;;;;;;;3.74;70.48;101683.32;1669085;85;20905;-74
2022/02/26 03:25:44;;;;;;;9.03;7.15;;;;;;;3.75;70.51;101687.61;1659141;85;20934;-74
2022/02/26 03:28:11;;;;;;;;;;;;;;;3.74;70.53;101693.14;1666430;85;20867;-74
2022/02/26 03:30:37;;;;;;;;;;;;;;;3.73;70.95;101695.66;1662711;85;20138;-74
2022/02/26 03:33:06;;;;;;;40.73;34.03;;;;;;;3.72;71.09;101702.46;1670401;85;20102;-75
2022/02/26 03:35:33;;;;;;;11.45;7.22;;;;;;;3.71;70.66;101707.13;1668595;85;23854;-75
2022/02/26 03:37:59;;;;;;;7.95;6.42;;;;;;;3.71;70.74;101710.95;1665022;85;20901;-75
2022/02/26 03:40:26;;;;;;;11.22;7.85;;;;;;;3.71;70.75;101719.05;1657188;85;21488;-75
2022/02/26 03:42:52;;;;;;;7.78;6.67;;;;;;;3.70;70.80;101716.89;1661106;85;20886;-75
2022/02/26 03:45:22;;;;;;;7.78;6.20;;;;;;;3.68;70.81;101723.66;1664336;85;20942;-75
2022/02/26 03:47:47;;;;;;;9.68;6.95;;;;;;;3.70;70.86;101723.70;1658034;84;20910;-75
2022/02/26 03:50:13;;;;;;;9.53;6.27;;;;;;;3.69;70.86;101733.06;1659804;85;20922;-75
2022/02/26 03:52:45;;;;;;;8.18;5.97;;;;;;;3.69;70.92;101731.78;1654982;85;20910;-75
2022/02/26 03:55:12;;;;;;;10.20;6.05;;;;;;;3.71;70.95;101738.22;1657457;85;20945;-75
2022/02/26 03:57:38;;;;;;;8.30;5.42;;;;;;;3.71;70.97;101742.06;1667179;85;22826;-75
2022/02/26 04:00:18;;;;;;;7.83;6.08;;;;;;;3.71;71.01;101746.77;1672569;85;20927;-75
2022/02/26 04:02:44;;;;;;;9.93;5.80;;;;;;;3.70;71.02;101742.88;1667227;85;20945;-75
2022/02/26 04:05:10;;;;;;;6.83;5.37;;;;;;;3.69;71.07;101751.38;1650180;85;20906;-75
2022/02/26 04:07:40;;;;;;;6.60;5.12;;;;;;;3.69;71.10;101761.61;1663583;85;21408;-75
2022/02/26 04:10:06;;;;;;;8.45;5.87;;;;;;;3.68;71.13;101764.58;1664914;85;21116;-75
2022/02/26 04:12:33;;;;;;;6.72;5.50;;;;;;;3.67;71.07;101764.12;1650912;85;20918;-74
2022/02/26 04:14:59;;;;;;;7.45;5.60;;;;;;;3.65;71.18;101764.48;1663636;85;20949;-74
2022/02/26 04:17:25;;;;;;;8.37;5.47;;;;;;;3.66;71.23;101775.17;1667937;85;20988;-75
2022/02/26 04:19:51;;;;;;;7.73;5.73;;;;;;;3.64;71.26;101781.52;1670355;85;20879;-75
2022/02/26 04:22:17;;;;;;;7.17;6.47;;;;;;;3.65;71.30;101788.38;1671946;84;21214;-75
2022/02/26 04:24:43;;;;;;;7.30;5.55;;;;;;;3.65;71.32;101788.38;1664868;85;20941;-74
2022/02/26 04:27:09;;;;;;;8.80;6.08;;;;;;;3.66;71.39;101786.27;1659202;85;20955;-75
2022/02/26 04:29:35;;;;;;;6.93;4.83;;;;;;;3.68;71.37;101792.72;1672142;85;20842;-75
2022/02/26 04:32:01;;;;;;;6.57;5.57;;;;;;;3.68;71.38;101792.72;1645321;86;21057;-74
2022/02/26 04:34:27;;;;;;;7.92;5.80;;;;;;;3.68;71.44;101798.23;1665071;85;21390;-74
2022/02/26 04:36:54;;;;;;;7.95;5.35;;;;;;;3.66;71.41;101804.17;1660423;85;20998;-74
2022/02/26 04:39:20;;;;;;;10.08;7.20;;;;;;;3.68;71.45;101807.19;1665066;85;20909;-75
2022/02/26 04:41:46;;;;;;;10.93;5.83;;;;;;;3.68;71.52;101810.62;1665162;85;20893;-75
2022/02/26 04:44:12;;;;;;;8.58;5.40;;;;;;;3.66;71.49;101816.96;1659529;85;20887;-75
2022/02/26 04:46:38;;;;;;;8.67;5.10;;;;;;;3.65;71.49;101822.03;1664063;85;20836;-74
2022/02/26 04:49:04;;;;;;;8.55;5.17;;;;;;;3.62;71.36;101830.51;1666177;85;20954;-75
2022/02/26 04:51:30;;;;;;;12.85;5.53;;;;;;;3.62;71.36;101830.51;1664731;85;21032;-75
2022/02/26 04:53:56;;;;;;;7.22;5.62;;;;;;;3.60;71.52;101838.95;1662481;85;21120;-74
2022/02/26 04:56:22;;;;;;;7.77;5.50;;;;;;;3.58;71.64;101840.59;1653197;85;20914;-74
2022/02/26 04:58:49;;;;;;;15.05;13.75;;;;;;;3.61;71.71;101849.23;1645238;85;26672;-74
2022/02/26 05:01:14;;;;;;;6.07;5.17;;;;;;;3.64;71.76;101858.66;1660244;85;20887;-74
2022/02/26 05:03:41;;;;;;;8.17;5.63;;;;;;;3.63;71.74;101854.39;1673210;84;21590;-74
2022/02/26 05:06:07;;;;;;;8.25;6.10;;;;;;;3.63;71.73;101861.66;1669980;84;21624;-74
2022/02/26 05:08:33;;;;;;;7.45;5.42;;;;;;;3.64;71.81;101859.94;1672738;85;20978;-74
2022/02/26 05:10:59;;;;;;;9.53;5.50;;;;;;;3.64;71.80;101869.75;1666527;85;21482;-74
2022/02/26 05:13:25;;;;;;;5.63;4.93;;;;;;;3.63;71.84;101874.45;1657903;85;20938;-74
2022/02/26 05:15:51;;;;;;;6.20;5.60;;;;;;;3.65;71.90;101879.58;1658790;85;21673;-74
2022/02/26 05:18:17;;;;;;;10.50;5.43;;;;;;;3.67;71.96;101883.05;1673249;84;20911;-74
2022/02/26 05:20:43;;;;;;;8.80;4.87;;;;;;;3.67;71.90;101886.89;1670157;84;21714;-74
2022/02/26 05:23:10;;;;;;;10.03;5.55;;;;;;;3.68;71.96;101897.99;1667784;85;21445;-74
2022/02/26 05:25:36;;;;;;;6.65;5.47;;;;;;;3.68;72.00;101905.66;1645251;85;21034;-74
2022/02/26 05:28:03;;;;;;;8.30;5.47;;;;;;;3.67;71.97;101909.91;1659098;85;21562;-74
2022/02/26 05:30:30;;;;;;;7.72;5.90;;;;;;;3.67;72.07;101911.19;1671590;85;21466;-73
2022/02/26 05:32:56;;;;;;;8.48;6.00;;;;;;;3.68;72.09;101919.73;1655372;85;21066;-73
2022/02/26 05:35:22;;;;;;;12.03;5.87;;;;;;;3.69;72.17;101921.06;1645793;85;21041;-74
2022/02/26 05:37:48;;;;;;;10.60;6.12;;;;;;;3.69;72.18;101926.17;1646764;85;21058;-74
2022/02/26 05:40:14;;;;;;;6.40;5.40;;;;;;;3.65;72.13;101928.17;1646203;85;21113;-74
2022/02/26 05:42:41;;;;;;;8.03;5.30;;;;;;;3.63;72.17;101929.84;1645840;87;21061;-74
2022/02/26 05:45:08;;;;;;;;;;;;;;;3.65;72.26;101935.84;1669177;85;21082;-74
2022/02/26 05:47:34;;;;;;;;;;;;;;;3.66;72.66;101944.85;1676681;85;20114;-75
2022/02/26 05:50:00;;;;;;;7.42;4.58;;;;;;;3.68;72.69;101944.03;1652672;85;20189;-75
2022/02/26 05:52:26;;;;;;;6.60;4.78;;;;;;;3.69;72.39;101949.20;1645451;86;20910;-75
2022/02/26 05:54:52;;;;;;;8.23;5.27;;;;;;;3.69;72.37;101954.72;1664434;85;20956;-75
2022/02/26 05:57:18;;;;;;;9.80;4.95;;;;;;;3.68;72.43;101960.25;1675310;84;20898;-74
2022/02/26 05:59:44;;;;;;;9.43;5.22;;;;;;;3.71;72.44;101968.02;1675487;85;20939;-74
2022/02/26 06:02:11;;;;;;;9.43;5.47;;;;;;;3.72;72.46;101965.92;1650493;85;20879;-74
2022/02/26 06:04:39;;;;;;;9.75;5.37;;;;;;;3.74;72.47;101965.98;1647027;85;20946;-74
2022/02/26 06:07:05;;;;;;;10.30;4.95;;;;;;;3.75;72.49;101966.44;1648000;85;20895;-74
2022/02/26 06:09:31;;;;;;;5.78;4.83;;;;;;;3.77;72.51;101977.59;1649571;85;21561;-75
2022/02/26 06:11:57;;;;;;;10.03;5.37;;;;;;;3.78;72.55;101978.05;1648295;85;20942;-75
2022/02/26 06:14:24;;;;;;;16.05;14.75;;;;;;;3.78;72.53;101985.32;1649815;85;20899;-75
2022/02/26 06:16:50;;;;;;;6.85;4.47;;;;;;;3.79;72.60;101988.75;1652428;85;20991;-75
2022/02/26 06:19:16;;;;;;;6.78;4.78;;;;;;;3.81;72.63;101990.95;1649858;85;20946;-75
2022/02/26 06:21:42;;;;;;;6.12;4.92;;;;;;;3.82;72.65;101988.85;1675563;84;20895;-75
2022/02/26 06:24:08;;;;;;;8.43;5.50;;;;;;;3.83;72.67;101996.98;1674411;84;20962;-75
2022/02/26 06:26:35;;;;;;;6.30;4.83;;;;;;;3.84;72.73;102002.16;1687694;84;20860;-75
2022/02/26 06:29:00;;;;;;;7.50;5.05;;;;;;;3.87;72.69;102008.66;1663178;83;20915;-74
2022/02/26 06:31:26;;;;;;;7.77;4.97;;;;;;;3.87;72.74;102013.77;1651005;85;20883;-74
2022/02/26 06:33:52;;;;;;;12.70;11.60;;;;;;;3.89;72.81;102018.53;1651744;85;20890;-74
2022/02/26 06:36:18;;;;;;;7.43;5.67;;;;;;;3.91;72.86;102019.86;1648140;85;20950;-74
2022/02/26 06:38:44;;;;;;;8.10;5.53;;;;;;;3.93;72.88;102023.34;1650470;85;20923;-73
2022/02/26 06:41:11;;;;;;;9.90;6.10;;;;;;;3.95;72.90;102021.71;1675467;84;20906;-73
2022/02/26 06:43:38;;;;;;;7.53;5.25;;;;;;;3.97;72.89;102032.45;1675457;85;26110;-73
2022/02/26 06:46:08;;;;;;;7.12;5.95;;;;;;;3.94;72.79;102037.88;1671668;85;20974;-72
2022/02/26 06:48:35;;;;;;;6.62;5.40;;;;;;;3.95;72.87;102043.05;1649474;85;20927;-72
2022/02/26 06:51:01;;;;;;;7.30;5.90;;;;;;;3.99;72.94;102046.59;1666864;85;20963;-72
2022/02/26 06:53:27;;;;;;;71.25;23.40;;;;;;;3.97;72.92;102044.38;1662506;85;20911;-73
2022/02/26 06:55:55;;;;;;;9.48;6.10;;;;;;;4.04;73.06;102043.77;1674627;84;20915;-73
2022/02/26 06:58:21;;;;;;;18.45;16.90;;;;;;;4.18;73.11;102048.91;1675353;85;21510;-73
2022/02/26 07:00:47;;;;;;;6.67;5.90;;;;;;;4.38;73.17;102053.81;1671728;84;20870;-73
2022/02/26 07:03:13;;;;;;;8.30;6.47;;;;;;;4.56;73.10;102059.53;1671907;85;20935;-73
2022/02/26 07:05:39;;;;;;;7.37;5.83;;;;;;;4.78;73.24;102068.72;1672990;85;20894;-73
2022/02/26 07:08:05;;;;;;;8.23;6.73;;;;;;;5.03;73.26;102071.63;1665026;85;20863;-73
2022/02/26 07:10:31;;;;;;;7.77;6.00;;;;;;;5.30;73.25;102073.69;1668024;84;20932;-72
2022/02/26 07:12:57;;;;;;;12.60;6.62;;;;;;;5.54;73.19;102082.09;1663079;85;20882;-73
2022/02/26 07:15:23;;;;;;;10.33;6.33;;;;;;;5.70;72.97;102086.36;1664658;85;20883;-73
2022/02/26 07:17:49;;;;;;;12.20;11.10;;;;;;;5.81;72.97;102089.65;1667359;84;20921;-72
2022/02/26 07:20:15;;;;;;;11.43;9.33;;;;;;;5.92;73.02;102092.13;1665188;85;20929;-73
2022/02/26 07:22:42;;;;;;;10.13;8.73;;;;;;;6.04;73.06;102089.02;1658813;85;21382;-73
2022/02/26 07:25:09;;;;;;;12.75;11.45;;;;;;;6.15;73.07;102100.84;1664913;85;21835;-73
2022/02/26 07:27:36;;;;;;;13.30;11.85;;;;;;;6.19;73.07;102098.41;1667986;85;21482;-73
2022/02/26 07:30:04;;;;;;;21.55;16.55;;;;;;;6.29;73.15;102105.48;1668251;85;21424;-73
2022/02/26 07:32:30;;;;;;;138.60;40.67;;;;;;;6.45;73.10;102102.88;1669531;84;21374;-73
2022/02/26 07:34:59;;;;;;;12.95;11.65;;;;;;;6.50;73.11;102110.70;1664985;85;21347;-73
2022/02/26 07:37:24;;;;;;;15.55;12.40;;;;;;;6.47;73.02;102118.34;1660624;85;21426;-73
2022/02/26 07:39:50;;;;;;;18.77;17.23;;;;;;;6.42;73.06;102130.20;1667778;84;21486;-73
2022/02/26 07:42:17;;;;;;;18.52;15.85;;;;;;;6.33;73.04;102130.83;1668596;85;21402;-73
2022/02/26 07:44:43;;;;;;;16.77;12.90;;;;;;;6.31;73.16;102137.63;1667649;85;21563;-73
2022/02/26 07:47:09;;;;;;;18.30;13.73;;;;;;;6.31;73.27;102138.50;1659929;85;20949;-73
2022/02/26 07:49:35;;;;;;;13.33;11.97;;;;;;;6.15;73.00;102144.51;1664245;85;21179;-73
2022/02/26 07:52:01;;;;;;;16.37;12.37;;;;;;;6.00;73.12;102153.95;1667432;84;22347;-73
2022/02/26 07:54:27;;;;;;;17.60;13.72;;;;;;;6.07;73.43;102149.44;1667463;85;21081;-73
2022/02/26 07:56:53;;;;;;;16.60;12.50;;;;;;;6.15;73.41;102158.63;1635408;86;21641;-73
2022/02/26 07:59:20;;;;;;;17.98;12.68;;;;;;;6.13;73.36;102159.88;1635478;86;21587;-73
2022/02/26 08:01:46;;;;;;;14.75;12.70;;;;;;;6.22;73.46;102163.11;1632782;86;21643;-73
2022/02/26 08:04:12;;;;;;;17.37;12.07;;;;;;;6.34;73.56;102169.82;1635418;86;21563;-72
2022/02/26 08:06:38;;;;;;;14.55;13.13;;;;;;;6.49;73.49;102174.48;1635535;87;21706;-72
2022/02/26 08:09:04;;;;;;;15.90;13.57;;;;;;;6.49;73.40;102171.92;1635344;86;21829;-76
2022/02/26 08:11:39;;;;;;;16.23;13.48;;;;;;;6.53;73.50;102190.02;1630941;86;21572;-76
2022/02/26 08:14:03;;;;;;;18.35;15.15;;;;;;;6.59;73.56;102189.31;1634000;86;21056;-76
2022/02/26 08:16:29;;;;;;;16.25;13.13;;;;;;;6.64;73.56;102193.74;1633630;86;21717;-76
2022/02/26 08:18:55;;;;;;;19.45;14.73;;;;;;;6.77;73.69;102194.89;1634659;87;21075;-74
2022/02/26 08:21:22;;;;;;;17.40;15.43;;;;;;;6.94;73.73;102197.88;1635926;87;21484;-72
2022/02/26 08:23:49;;;;;;;18.37;15.85;;;;;;;7.02;73.55;102201.50;1637514;87;20969;-75
2022/02/26 08:26:16;;;;;;;;;;;;;;;6.90;73.40;102216.22;1643267;85;20945;-77
2022/02/26 08:28:43;;;;;;;16.02;14.05;;;;;;;6.82;73.40;102220.71;1629218;86;20175;-75
2022/02/26 08:31:09;;;;;;;18.70;14.55;;;;;;;6.78;73.42;102224.04;1678256;84;20914;-72
2022/02/26 08:33:35;;;;;;;17.57;15.73;;;;;;;6.75;73.49;102231.29;1675679;85;20917;-73
2022/02/26 08:36:01;;;;;;;25.87;15.80;;;;;;;6.47;73.42;102213.41;1641985;85;21500;-73
2022/02/26 08:38:27;;;;;;;20.23;13.60;;;;;;;6.47;73.42;102213.41;1622877;85;21943;-73
2022/02/26 08:40:53;;;;;;;20.97;15.05;;;;;;;6.53;73.44;102241.42;1617860;86;20977;-75
2022/02/26 08:43:21;;;;;;;14.00;12.57;;;;;;;6.48;73.41;102246.85;1624405;86;20915;-75
2022/02/26 08:45:47;;;;;;;23.55;15.80;;;;;;;6.49;73.59;102245.16;1671008;85;22195;-75
2022/02/26 08:48:13;;;;;;;20.92;14.15;;;;;;;6.51;73.57;102246.94;1633769;86;21512;-75
2022/02/26 08:50:40;;;;;;;20.20;14.50;;;;;;;6.60;73.52;102252.73;1641403;86;21563;-76
2022/02/26 08:53:06;;;;;;;22.53;12.37;;;;;;;6.62;73.57;102253.23;1638598;85;20969;-75
2022/02/26 08:55:32;;;;;;;25.40;22.57;;;;;;;6.72;73.61;102242.78;1639589;85;21745;-75
2022/02/26 08:57:58;;;;;;;17.67;14.05;;;;;;;6.80;73.56;102248.95;1639672;87;21504;-75
2022/02/26 09:00:25;;;;;;;13.40;11.38;;;;;;;6.79;73.39;102261.36;1640334;86;21096;-75
2022/02/26 09:02:51;;;;;;;15.72;13.30;;;;;;;6.74;73.17;102263.38;1639801;86;21579;-75
2022/02/26 09:05:17;;;;;;;17.17;11.17;;;;;;;6.59;73.18;102270.27;1633179;85;20988;-74
2022/02/26 09:07:44;;;;;;;18.32;11.53;;;;;;;6.53;73.36;102276.12;1634626;87;21437;-75
2022/02/26 09:10:10;;;;;;;16.50;13.32;;;;;;;6.58;73.53;102283.53;1638267;85;21258;-76
2022/02/26 09:12:36;;;;;;;13.98;10.15;;;;;;;6.69;73.54;102290.67;1633173;87;21654;-75
2022/02/26 09:15:04;;;;;;;14.47;10.07;;;;;;;6.74;73.43;102297.67;1639237;87;21174;-75
2022/02/26 09:17:30;;;;;;;14.03;9.78;;;;;;;6.77;73.39;102299.42;1625195;87;21816;-75
2022/02/26 09:19:56;;;;;;;15.27;13.10;;;;;;;6.78;73.41;102302.03;1673372;85;21510;-75
2022/02/26 09:22:25;;;;;;;15.15;9.98;;;;;;;6.78;73.29;102314.02;1676717;85;21054;-75
2022/02/26 09:24:51;;;;;;;14.33;9.50;;;;;;;6.77;73.29;102308.00;1675624;84;22639;-75
2022/02/26 09:27:17;;;;;;;12.03;10.82;;;;;;;6.76;73.30;102311.41;1667004;84;21433;-75
2022/02/26 09:29:43;;;;;;;16.17;7.03;;;;;;;6.84;73.40;102318.04;1673629;85;20942;-75
2022/02/26 09:32:09;;;;;;;18.30;13.33;;;;;;;6.87;73.36;102317.70;1673799;85;20958;-76
2022/02/26 09:34:36;;;;;;;12.37;8.38;;;;;;;6.82;73.25;102309.00;1675803;85;21531;-74
2022/02/26 09:37:03;;;;;;;11.60;10.07;;;;;;;6.90;73.19;102322.06;1674268;85;20897;-74
2022/02/26 09:39:29;;;;;;;14.60;10.20;;;;;;;6.92;73.22;102323.84;1672829;84;21548;-73
2022/02/26 09:41:58;;;;;;;12.60;11.50;;;;;;;7.00;73.36;102327.03;1673804;85;21031;-73
2022/02/26 09:44:24;;;;;;;15.15;10.75;;;;;;;7.09;73.29;102333.70;1668146;84;21056;-73
2022/02/26 09:46:51;;;;;;;15.93;14.25;;;;;;;7.07;73.15;102338.80;1671806;85;20858;-73
2022/02/26 09:49:17;;;;;;;13.68;12.20;;;;;;;7.05;73.18;102345.61;1670601;85;20891;-73
2022/02/26 09:51:45;;;;;;;15.55;14.00;;;;;;;7.08;73.24;102346.98;1638586;86;20960;-76
2022/02/26 09:54:11;;;;;;;;;;;;;;;7.16;73.32;102342.03;1623898;86;20908;-75
2022/02/26 09:56:38;;;;;;;15.32;12.45;;;;;;;7.28;73.24;102353.47;1623246;87;20138;-76
2022/02/26 09:59:05;;;;;;;16.07;14.50;;;;;;;7.29;73.07;102349.20;1667983;85;20859;-73
2022/02/26 10:01:31;;;;;;;15.83;12.57;;;;;;;7.18;73.01;102356.67;1677220;84;21752;-74
2022/02/26 10:04:10;;;;;;;13.58;12.28;;;;;;;7.23;73.07;102360.23;1667933;84;20937;-74
2022/02/26 10:06:37;;;;;;;20.40;16.65;;;;;;;7.29;73.16;102360.36;1670882;84;20914;-73
2022/02/26 10:09:14;;;;;;;16.67;14.87;;;;;;;7.31;73.12;102365.55;1670411;84;20879;-73
2022/02/26 10:11:41;;;;;;;19.20;13.53;;;;;;;7.36;73.18;102370.81;1671017;84;20895;-73
2022/02/26 10:14:15;;;;;;;15.95;14.35;;;;;;;7.41;73.12;102367.52;1561537;84;9999779;-74
2022/02/26 10:16:51;;;;;;;16.93;13.95;;;;;;;7.41;73.06;102370.52;1673607;84;20923;-74
2022/02/26 10:19:26;;;;;;;17.25;11.68;;;;;;;7.45;73.13;102369.76;1672995;84;20910;-73
2022/02/26 10:21:57;;;;;;;18.42;11.97;;;;;;;7.53;73.13;102369.53;1676739;84;20895;-74
2022/02/26 10:24:25;;;;;;;13.83;12.40;;;;;;;7.59;72.97;102373.13;1674858;84;20886;-74
2022/02/26 10:27:03;;;;;;;13.75;10.43;;;;;;;7.59;72.94;102374.83;1675069;84;20925;-74
2022/02/26 10:29:29;;;;;;;12.13;10.80;;;;;;;7.59;72.96;102373.55;1674630;84;20922;-73
2022/02/26 10:31:58;;;;;;;11.33;10.20;;;;;;;7.62;72.97;102372.33;1675904;84;20926;-73
2022/02/26 10:34:41;;;;;;;13.43;10.85;;;;;;;7.60;72.87;102372.71;1674511;84;20926;-73
2022/02/26 10:37:13;;;;;;;13.85;11.22;;;;;;;7.64;72.94;102380.97;1677024;84;20878;-73
2022/02/26 10:39:49;;;;;;;19.37;11.97;;;;;;;7.75;72.94;102378.65;1674484;84;20952;-75
2022/02/26 10:42:28;;;;;;;12.70;10.85;;;;;;;7.82;73.00;102380.09;1672725;84;20942;-73
2022/02/26 10:45:18;;;;;;;13.85;10.23;;;;;;;7.91;72.97;102395.76;1676925;84;21339;-73
2022/02/26 10:47:45;;;;;;;11.68;10.65;;;;;;;7.96;72.81;102392.00;1671218;84;20895;-73
2022/02/26 10:50:22;;;;;;;15.27;13.70;;;;;;;7.84;72.62;102393.00;1676821;84;20976;-73
2022/02/26 10:53:05;;;;;;;10.98;9.85;;;;;;;7.78;72.67;102392.47;1672620;84;21315;-73
2022/02/26 10:55:51;;;;;;;11.95;10.80;;;;;;;7.82;72.64;102393.38;1673663;84;20929;-73
2022/02/26 10:58:26;;;;;;;11.60;10.50;;;;;;;7.84;72.69;102395.16;1670589;84;21383;-73
2022/02/26 11:01:06;;;;;;;14.20;11.83;;;;;;;7.89;72.70;102397.42;1668695;84;21014;-73
2022/02/26 11:03:34;;;;;;;13.15;11.03;;;;;;;7.96;72.69;102407.04;1673791;85;20942;-73
2022/02/26 11:06:01;;;;;;;15.48;13.32;;;;;;;7.97;72.56;102410.48;1677172;84;20986;-73
2022/02/26 11:08:30;;;;;;;13.43;12.18;;;;;;;7.94;72.52;102414.28;1639475;85;36125;-73
2022/02/26 11:10:58;;;;;;;12.15;10.82;;;;;;;7.90;72.47;102414.62;1636616;85;21020;-73
2022/02/26 11:13:25;;;;;;;12.93;11.93;;;;;;;7.92;72.54;102411.66;1639532;85;21382;-73
2022/02/26 11:15:57;;;;;;;15.50;12.25;;;;;;;7.96;72.54;102409.61;1638100;85;24532;-74
2022/02/26 11:18:28;;;;;;;16.77;15.28;;;;;;;7.99;72.44;102415.25;1641190;85;20964;-74
2022/02/26 11:20:55;;;;;;;15.50;12.37;;;;;;;8.00;72.43;102414.84;1628899;86;20948;-74
2022/02/26 11:23:24;;;;;;;15.20;13.85;;;;;;;7.98;72.29;102414.80;1628978;86;21043;-74
2022/02/26 11:25:52;;;;;;;14.53;13.13;;;;;;;7.97;72.34;102413.06;1673633;84;20918;-74
2022/02/26 11:28:19;;;;;;;18.15;16.70;;;;;;;7.93;72.18;102412.12;1673019;84;20911;-74